sensor_id;sensor_type;location;lat;lon;timestamp;P1;durP1;ratioP1;P2;durP2;ratioP2
47894;SDS011;33653;52.302;8.134;2023-01-04T00:01:31;4.13;;;1.10;;
47894;SDS011;33653;52.302;8.134;2023-01-04T00:03:59;2.90;;;1.48;;
47894;SDS011;33653;52.302;8.134;2023-01-04T00:06:27;5.68;;;1.42;;
47894;SDS011;33653;52.302;8.134;2023-01-04T00:08:55;5.55;;;1.90;;
47894;SDS011;33653;52.302;8.134;2023-01-04T00:11:23;6.50;;;1.85;;
47894;SDS011;33653;52.302;8.134;2023-01-04T00:13:52;1.27;;;1.17;;
47894;SDS011;33653;52.302;8.134;2023-01-04T00:16:24;1.35;;;1.25;;
47894;SDS011;33653;52.302;8.134;2023-01-04T00:21:23;2.28;;;1.60;;
47894;SDS011;33653;52.302;8.134;2023-01-04T00:23:54;2.33;;;1.25;;
47894;SDS011;33653;52.302;8.134;2023-01-04T00:26:25;1.45;;;1.35;;
47894;SDS011;33653;52.302;8.134;2023-01-04T00:28:59;2.05;;;1.70;;
47894;SDS011;33653;52.302;8.134;2023-01-04T00:31:30;5.72;;;1.40;;
47894;SDS011;33653;52.302;8.134;2023-01-04T00:34:00;5.18;;;1.30;;
47894;SDS011;33653;52.302;8.134;2023-01-04T00:36:31;1.00;;;1.00;;
47894;SDS011;33653;52.302;8.134;2023-01-04T00:39:00;2.08;;;1.10;;
47894;SDS011;33653;52.302;8.134;2023-01-04T00:44:24;5.18;;;1.40;;
47894;SDS011;33653;52.302;8.134;2023-01-04T00:46:52;1.58;;;1.40;;
47894;SDS011;33653;52.302;8.134;2023-01-04T00:49:20;5.32;;;1.60;;
47894;SDS011;33653;52.302;8.134;2023-01-04T00:51:48;1.20;;;1.10;;
47894;SDS011;33653;52.302;8.134;2023-01-04T00:54:16;3.28;;;1.55;;
47894;SDS011;33653;52.302;8.134;2023-01-04T00:56:44;1.60;;;1.40;;
47894;SDS011;33653;52.302;8.134;2023-01-04T00:59:13;1.48;;;1.15;;
47894;SDS011;33653;52.302;8.134;2023-01-04T01:01:43;1.75;;;1.65;;
47894;SDS011;33653;52.302;8.134;2023-01-04T01:04:12;1.35;;;1.20;;
47894;SDS011;33653;52.302;8.134;2023-01-04T01:06:42;2.70;;;1.48;;
47894;SDS011;33653;52.302;8.134;2023-01-04T01:09:10;3.42;;;1.40;;
47894;SDS011;33653;52.302;8.134;2023-01-04T01:11:38;2.08;;;1.27;;
47894;SDS011;33653;52.302;8.134;2023-01-04T01:14:07;1.30;;;1.17;;
47894;SDS011;33653;52.302;8.134;2023-01-04T01:16:40;3.90;;;1.40;;
47894;SDS011;33653;52.302;8.134;2023-01-04T01:19:22;3.13;;;1.63;;
47894;SDS011;33653;52.302;8.134;2023-01-04T01:21:51;2.83;;;1.13;;
47894;SDS011;33653;52.302;8.134;2023-01-04T01:24:19;1.88;;;1.23;;
47894;SDS011;33653;52.302;8.134;2023-01-04T01:26:47;1.67;;;1.33;;
47894;SDS011;33653;52.302;8.134;2023-01-04T01:29:15;2.00;;;1.55;;
47894;SDS011;33653;52.302;8.134;2023-01-04T01:31:43;1.42;;;1.33;;
47894;SDS011;33653;52.302;8.134;2023-01-04T01:34:11;5.55;;;1.83;;
47894;SDS011;33653;52.302;8.134;2023-01-04T01:36:39;5.90;;;1.52;;
47894;SDS011;33653;52.302;8.134;2023-01-04T01:39:07;1.88;;;1.10;;
47894;SDS011;33653;52.302;8.134;2023-01-04T01:41:35;0.93;;;0.90;;
47894;SDS011;33653;52.302;8.134;2023-01-04T01:44:04;4.05;;;1.88;;
47894;SDS011;33653;52.302;8.134;2023-01-04T01:49:17;3.15;;;1.23;;
47894;SDS011;33653;52.302;8.134;2023-01-04T01:51:51;1.85;;;1.25;;
47894;SDS011;33653;52.302;8.134;2023-01-04T01:54:23;1.80;;;0.90;;
47894;SDS011;33653;52.302;8.134;2023-01-04T01:56:57;2.47;;;1.25;;
47894;SDS011;33653;52.302;8.134;2023-01-04T01:59:28;3.75;;;1.00;;
47894;SDS011;33653;52.302;8.134;2023-01-04T02:01:58;3.83;;;1.17;;
47894;SDS011;33653;52.302;8.134;2023-01-04T02:04:26;1.27;;;0.90;;
47894;SDS011;33653;52.302;8.134;2023-01-04T02:06:54;4.10;;;1.00;;
47894;SDS011;33653;52.302;8.134;2023-01-04T02:09:23;2.90;;;1.20;;
47894;SDS011;33653;52.302;8.134;2023-01-04T02:11:52;2.10;;;1.00;;
47894;SDS011;33653;52.302;8.134;2023-01-04T02:14:20;1.73;;;1.33;;
47894;SDS011;33653;52.302;8.134;2023-01-04T02:17:13;3.22;;;1.67;;
47894;SDS011;33653;52.302;8.134;2023-01-04T02:20:15;4.50;;;1.38;;
47894;SDS011;33653;52.302;8.134;2023-01-04T02:23:01;5.15;;;2.00;;
47894;SDS011;33653;52.302;8.134;2023-01-04T02:30:57;4.45;;;1.17;;
47894;SDS011;33653;52.302;8.134;2023-01-04T02:33:54;1.13;;;1.02;;
47894;SDS011;33653;52.302;8.134;2023-01-04T02:36:43;3.35;;;1.10;;
47894;SDS011;33653;52.302;8.134;2023-01-04T02:40:02;2.80;;;1.30;;
47894;SDS011;33653;52.302;8.134;2023-01-04T02:45:49;3.38;;;1.40;;
47894;SDS011;33653;52.302;8.134;2023-01-04T02:48:37;8.15;;;1.48;;
47894;SDS011;33653;52.302;8.134;2023-01-04T02:51:27;4.15;;;1.42;;
47894;SDS011;33653;52.302;8.134;2023-01-04T02:53:59;4.10;;;1.52;;
47894;SDS011;33653;52.302;8.134;2023-01-04T03:02:54;1.83;;;1.08;;
47894;SDS011;33653;52.302;8.134;2023-01-04T03:06:10;9.18;;;1.30;;
47894;SDS011;33653;52.302;8.134;2023-01-04T03:08:49;4.30;;;1.30;;
47894;SDS011;33653;52.302;8.134;2023-01-04T03:11:38;1.35;;;1.25;;
47894;SDS011;33653;52.302;8.134;2023-01-04T03:14:33;1.55;;;1.25;;
47894;SDS011;33653;52.302;8.134;2023-01-04T03:17:18;3.60;;;1.27;;
47894;SDS011;33653;52.302;8.134;2023-01-04T03:22:26;2.83;;;1.00;;
47894;SDS011;33653;52.302;8.134;2023-01-04T03:25:46;2.08;;;1.35;;
47894;SDS011;33653;52.302;8.134;2023-01-04T03:34:25;1.00;;;1.00;;
47894;SDS011;33653;52.302;8.134;2023-01-04T03:42:48;2.33;;;1.42;;
47894;SDS011;33653;52.302;8.134;2023-01-04T03:45:48;2.47;;;1.73;;
47894;SDS011;33653;52.302;8.134;2023-01-04T03:48:59;1.52;;;1.08;;
47894;SDS011;33653;52.302;8.134;2023-01-04T03:51:56;1.00;;;1.00;;
47894;SDS011;33653;52.302;8.134;2023-01-04T03:57:05;1.13;;;1.10;;
47894;SDS011;33653;52.302;8.134;2023-01-04T03:59:38;1.48;;;1.23;;
47894;SDS011;33653;52.302;8.134;2023-01-04T04:02:14;1.55;;;1.20;;
47894;SDS011;33653;52.302;8.134;2023-01-04T04:04:45;1.48;;;1.38;;
47894;SDS011;33653;52.302;8.134;2023-01-04T04:07:32;9.00;;;1.63;;
47894;SDS011;33653;52.302;8.134;2023-01-04T04:10:18;1.50;;;1.40;;
47894;SDS011;33653;52.302;8.134;2023-01-04T04:12:46;1.42;;;1.33;;
47894;SDS011;33653;52.302;8.134;2023-01-04T04:15:14;1.40;;;1.30;;
47894;SDS011;33653;52.302;8.134;2023-01-04T04:17:42;3.33;;;1.70;;
47894;SDS011;33653;52.302;8.134;2023-01-04T04:20:10;1.95;;;1.38;;
47894;SDS011;33653;52.302;8.134;2023-01-04T04:22:39;1.92;;;1.67;;
47894;SDS011;33653;52.302;8.134;2023-01-04T04:25:07;2.47;;;1.60;;
47894;SDS011;33653;52.302;8.134;2023-01-04T04:27:35;2.67;;;1.58;;
47894;SDS011;33653;52.302;8.134;2023-01-04T04:30:03;3.15;;;1.70;;
47894;SDS011;33653;52.302;8.134;2023-01-04T04:32:31;1.80;;;1.70;;
47894;SDS011;33653;52.302;8.134;2023-01-04T04:34:59;2.95;;;1.80;;
47894;SDS011;33653;52.302;8.134;2023-01-04T04:37:27;4.38;;;2.15;;
47894;SDS011;33653;52.302;8.134;2023-01-04T04:39:57;1.80;;;1.70;;
47894;SDS011;33653;52.302;8.134;2023-01-04T04:42:25;2.40;;;1.52;;
47894;SDS011;33653;52.302;8.134;2023-01-04T04:44:53;3.45;;;2.10;;
47894;SDS011;33653;52.302;8.134;2023-01-04T04:47:21;1.83;;;1.73;;
47894;SDS011;33653;52.302;8.134;2023-01-04T04:49:49;2.35;;;2.00;;
47894;SDS011;33653;52.302;8.134;2023-01-04T04:52:17;2.80;;;2.25;;
47894;SDS011;33653;52.302;8.134;2023-01-04T04:54:45;1.90;;;1.80;;
47894;SDS011;33653;52.302;8.134;2023-01-04T04:57:13;2.42;;;1.75;;
47894;SDS011;33653;52.302;8.134;2023-01-04T04:59:41;2.22;;;2.03;;
47894;SDS011;33653;52.302;8.134;2023-01-04T05:02:08;2.53;;;2.30;;
47894;SDS011;33653;52.302;8.134;2023-01-04T05:04:37;2.30;;;2.10;;
47894;SDS011;33653;52.302;8.134;2023-01-04T05:07:05;5.25;;;2.00;;
47894;SDS011;33653;52.302;8.134;2023-01-04T05:09:38;2.25;;;2.05;;
47894;SDS011;33653;52.302;8.134;2023-01-04T05:12:06;3.67;;;2.55;;
47894;SDS011;33653;52.302;8.134;2023-01-04T05:14:54;2.05;;;1.90;;
47894;SDS011;33653;52.302;8.134;2023-01-04T05:17:22;2.60;;;2.40;;
47894;SDS011;33653;52.302;8.134;2023-01-04T05:19:50;3.38;;;1.90;;
47894;SDS011;33653;52.302;8.134;2023-01-04T05:22:17;4.20;;;2.45;;
47894;SDS011;33653;52.302;8.134;2023-01-04T05:24:45;2.45;;;2.22;;
47894;SDS011;33653;52.302;8.134;2023-01-04T05:27:13;2.30;;;2.10;;
47894;SDS011;33653;52.302;8.134;2023-01-04T05:29:41;2.60;;;2.40;;
47894;SDS011;33653;52.302;8.134;2023-01-04T05:32:28;2.50;;;2.30;;
47894;SDS011;33653;52.302;8.134;2023-01-04T05:34:56;2.50;;;2.30;;
47894;SDS011;33653;52.302;8.134;2023-01-04T05:37:24;2.90;;;2.15;;
47894;SDS011;33653;52.302;8.134;2023-01-04T05:39:51;3.17;;;2.47;;
47894;SDS011;33653;52.302;8.134;2023-01-04T05:42:19;3.28;;;2.72;;
47894;SDS011;33653;52.302;8.134;2023-01-04T05:44:54;2.38;;;2.17;;
47894;SDS011;33653;52.302;8.134;2023-01-04T05:47:25;2.10;;;1.83;;
47894;SDS011;33653;52.302;8.134;2023-01-04T05:49:53;2.97;;;2.25;;
47894;SDS011;33653;52.302;8.134;2023-01-04T05:52:21;4.63;;;2.10;;
47894;SDS011;33653;52.302;8.134;2023-01-04T05:54:49;2.55;;;2.28;;
47894;SDS011;33653;52.302;8.134;2023-01-04T05:57:16;2.75;;;2.28;;
47894;SDS011;33653;52.302;8.134;2023-01-04T05:59:44;3.03;;;2.40;;
47894;SDS011;33653;52.302;8.134;2023-01-04T06:02:17;3.55;;;2.53;;
47894;SDS011;33653;52.302;8.134;2023-01-04T06:04:47;2.33;;;2.13;;
47894;SDS011;33653;52.302;8.134;2023-01-04T06:07:24;3.63;;;3.05;;
47894;SDS011;33653;52.302;8.134;2023-01-04T06:09:54;3.08;;;2.78;;
47894;SDS011;33653;52.302;8.134;2023-01-04T06:12:23;3.28;;;2.65;;
47894;SDS011;33653;52.302;8.134;2023-01-04T06:14:51;4.47;;;2.92;;
47894;SDS011;33653;52.302;8.134;2023-01-04T06:17:19;3.38;;;3.00;;
47894;SDS011;33653;52.302;8.134;2023-01-04T06:19:47;4.22;;;2.42;;
47894;SDS011;33653;52.302;8.134;2023-01-04T06:22:15;3.75;;;3.38;;
47894;SDS011;33653;52.302;8.134;2023-01-04T06:24:43;2.90;;;2.70;;
47894;SDS011;33653;52.302;8.134;2023-01-04T06:27:11;6.45;;;3.58;;
47894;SDS011;33653;52.302;8.134;2023-01-04T06:29:38;3.65;;;2.97;;
47894;SDS011;33653;52.302;8.134;2023-01-04T06:32:06;3.83;;;3.38;;
47894;SDS011;33653;52.302;8.134;2023-01-04T06:34:34;2.92;;;2.45;;
47894;SDS011;33653;52.302;8.134;2023-01-04T06:37:02;3.53;;;3.15;;
47894;SDS011;33653;52.302;8.134;2023-01-04T06:39:31;4.22;;;3.80;;
47894;SDS011;33653;52.302;8.134;2023-01-04T06:41:59;10.23;;;3.10;;
47894;SDS011;33653;52.302;8.134;2023-01-04T06:44:32;3.88;;;3.47;;
47894;SDS011;33653;52.302;8.134;2023-01-04T06:47:00;7.38;;;4.25;;
47894;SDS011;33653;52.302;8.134;2023-01-04T06:49:30;6.38;;;3.85;;
47894;SDS011;33653;52.302;8.134;2023-01-04T06:51:58;5.85;;;4.45;;
47894;SDS011;33653;52.302;8.134;2023-01-04T06:54:26;3.85;;;3.20;;
47894;SDS011;33653;52.302;8.134;2023-01-04T06:56:55;4.28;;;3.60;;
47894;SDS011;33653;52.302;8.134;2023-01-04T06:59:23;5.78;;;4.57;;
47894;SDS011;33653;52.302;8.134;2023-01-04T07:01:51;5.93;;;4.63;;
47894;SDS011;33653;52.302;8.134;2023-01-04T07:04:19;5.75;;;4.72;;
47894;SDS011;33653;52.302;8.134;2023-01-04T07:06:47;7.45;;;4.75;;
47894;SDS011;33653;52.302;8.134;2023-01-04T07:09:15;6.07;;;5.45;;
47894;SDS011;33653;52.302;8.134;2023-01-04T07:11:43;4.25;;;3.85;;
47894;SDS011;33653;52.302;8.134;2023-01-04T07:14:11;5.07;;;4.53;;
47894;SDS011;33653;52.302;8.134;2023-01-04T07:16:39;9.05;;;4.63;;
47894;SDS011;33653;52.302;8.134;2023-01-04T07:19:07;5.03;;;4.45;;
47894;SDS011;33653;52.302;8.134;2023-01-04T07:21:35;6.53;;;3.72;;
47894;SDS011;33653;52.302;8.134;2023-01-04T07:24:03;6.45;;;5.20;;
47894;SDS011;33653;52.302;8.134;2023-01-04T07:26:32;5.03;;;4.47;;
47894;SDS011;33653;52.302;8.134;2023-01-04T07:29:00;5.00;;;4.50;;
47894;SDS011;33653;52.302;8.134;2023-01-04T07:31:40;3.47;;;3.17;;
47894;SDS011;33653;52.302;8.134;2023-01-04T07:34:10;6.53;;;5.25;;
47894;SDS011;33653;52.302;8.134;2023-01-04T07:36:39;6.85;;;5.50;;
47894;SDS011;33653;52.302;8.134;2023-01-04T07:39:07;6.15;;;5.15;;
47894;SDS011;33653;52.302;8.134;2023-01-04T07:41:39;6.75;;;4.72;;
47894;SDS011;33653;52.302;8.134;2023-01-04T07:44:08;5.35;;;4.68;;
47894;SDS011;33653;52.302;8.134;2023-01-04T07:46:37;6.53;;;5.22;;
47894;SDS011;33653;52.302;8.134;2023-01-04T07:49:05;3.78;;;3.33;;
47894;SDS011;33653;52.302;8.134;2023-01-04T07:51:43;5.57;;;4.53;;
47894;SDS011;33653;52.302;8.134;2023-01-04T07:54:11;7.28;;;4.30;;
47894;SDS011;33653;52.302;8.134;2023-01-04T07:56:40;5.18;;;3.78;;
47894;SDS011;33653;52.302;8.134;2023-01-04T07:59:09;4.68;;;3.70;;
47894;SDS011;33653;52.302;8.134;2023-01-04T08:01:38;4.78;;;3.22;;
47894;SDS011;33653;52.302;8.134;2023-01-04T08:04:07;4.60;;;3.03;;
47894;SDS011;33653;52.302;8.134;2023-01-04T08:06:37;4.30;;;3.00;;
47894;SDS011;33653;52.302;8.134;2023-01-04T08:09:05;2.53;;;2.33;;
47894;SDS011;33653;52.302;8.134;2023-01-04T08:11:34;4.55;;;2.25;;
47894;SDS011;33653;52.302;8.134;2023-01-04T08:14:02;2.90;;;2.55;;
47894;SDS011;33653;52.302;8.134;2023-01-04T08:16:34;3.13;;;2.80;;
47894;SDS011;33653;52.302;8.134;2023-01-04T08:19:05;8.13;;;2.97;;
47894;SDS011;33653;52.302;8.134;2023-01-04T08:21:42;3.72;;;3.20;;
47894;SDS011;33653;52.302;8.134;2023-01-04T08:24:12;3.30;;;2.75;;
47894;SDS011;33653;52.302;8.134;2023-01-04T08:29:12;3.03;;;2.67;;
47894;SDS011;33653;52.302;8.134;2023-01-04T08:31:40;4.32;;;3.63;;
47894;SDS011;33653;52.302;8.134;2023-01-04T08:34:08;4.32;;;3.92;;
47894;SDS011;33653;52.302;8.134;2023-01-04T08:36:43;5.32;;;4.82;;
47894;SDS011;33653;52.302;8.134;2023-01-04T08:39:16;4.32;;;3.70;;
47894;SDS011;33653;52.302;8.134;2023-01-04T08:41:44;3.65;;;3.05;;
47894;SDS011;33653;52.302;8.134;2023-01-04T08:44:28;4.35;;;3.95;;
47894;SDS011;33653;52.302;8.134;2023-01-04T08:46:56;5.05;;;4.28;;
47894;SDS011;33653;52.302;8.134;2023-01-04T08:49:24;4.00;;;3.60;;
47894;SDS011;33653;52.302;8.134;2023-01-04T08:51:52;5.20;;;4.35;;
47894;SDS011;33653;52.302;8.134;2023-01-04T08:54:20;5.45;;;4.43;;
47894;SDS011;33653;52.302;8.134;2023-01-04T08:56:48;4.28;;;3.45;;
47894;SDS011;33653;52.302;8.134;2023-01-04T08:59:16;3.97;;;3.40;;
47894;SDS011;33653;52.302;8.134;2023-01-04T09:01:44;3.45;;;3.03;;
47894;SDS011;33653;52.302;8.134;2023-01-04T09:04:12;6.93;;;4.70;;
47894;SDS011;33653;52.302;8.134;2023-01-04T09:06:40;5.38;;;4.30;;
47894;SDS011;33653;52.302;8.134;2023-01-04T09:09:08;4.57;;;3.65;;
47894;SDS011;33653;52.302;8.134;2023-01-04T09:11:37;4.72;;;3.90;;
47894;SDS011;33653;52.302;8.134;2023-01-04T09:14:05;4.82;;;3.70;;
47894;SDS011;33653;52.302;8.134;2023-01-04T09:16:36;4.63;;;3.88;;
47894;SDS011;33653;52.302;8.134;2023-01-04T09:19:05;3.80;;;3.38;;
47894;SDS011;33653;52.302;8.134;2023-01-04T09:21:32;3.95;;;3.50;;
47894;SDS011;33653;52.302;8.134;2023-01-04T09:24:01;4.13;;;3.22;;
47894;SDS011;33653;52.302;8.134;2023-01-04T09:26:28;3.47;;;2.75;;
47894;SDS011;33653;52.302;8.134;2023-01-04T09:28:56;3.63;;;3.00;;
47894;SDS011;33653;52.302;8.134;2023-01-04T09:31:25;2.80;;;2.60;;
47894;SDS011;33653;52.302;8.134;2023-01-04T09:33:55;3.70;;;2.90;;
47894;SDS011;33653;52.302;8.134;2023-01-04T09:36:43;3.22;;;2.92;;
47894;SDS011;33653;52.302;8.134;2023-01-04T09:39:12;2.65;;;2.45;;
47894;SDS011;33653;52.302;8.134;2023-01-04T09:41:59;2.75;;;2.33;;
47894;SDS011;33653;52.302;8.134;2023-01-04T09:44:33;2.30;;;2.00;;
47894;SDS011;33653;52.302;8.134;2023-01-04T09:47:40;2.50;;;2.30;;
47894;SDS011;33653;52.302;8.134;2023-01-04T09:56:01;3.67;;;2.72;;
47894;SDS011;33653;52.302;8.134;2023-01-04T09:59:04;2.10;;;1.90;;
47894;SDS011;33653;52.302;8.134;2023-01-04T10:01:44;2.53;;;2.33;;
47894;SDS011;33653;52.302;8.134;2023-01-04T10:04:18;2.65;;;2.38;;
47894;SDS011;33653;52.302;8.134;2023-01-04T10:06:54;3.25;;;2.67;;
47894;SDS011;33653;52.302;8.134;2023-01-04T10:09:30;2.15;;;1.95;;
47894;SDS011;33653;52.302;8.134;2023-01-04T10:12:12;2.65;;;2.35;;
47894;SDS011;33653;52.302;8.134;2023-01-04T10:15:10;2.97;;;2.15;;
47894;SDS011;33653;52.302;8.134;2023-01-04T10:17:49;2.25;;;2.05;;
47894;SDS011;33653;52.302;8.134;2023-01-04T10:21:06;2.92;;;2.63;;
47894;SDS011;33653;52.302;8.134;2023-01-04T10:24:20;2.30;;;2.00;;
47894;SDS011;33653;52.302;8.134;2023-01-04T10:35:18;2.38;;;2.17;;
47894;SDS011;33653;52.302;8.134;2023-01-04T10:37:52;2.30;;;2.10;;
47894;SDS011;33653;52.302;8.134;2023-01-04T10:40:30;2.10;;;1.90;;
47894;SDS011;33653;52.302;8.134;2023-01-04T10:43:05;1.55;;;1.45;;
47894;SDS011;33653;52.302;8.134;2023-01-04T10:51:00;1.90;;;1.80;;
47894;SDS011;33653;52.302;8.134;2023-01-04T10:53:46;2.95;;;1.60;;
47894;SDS011;33653;52.302;8.134;2023-01-04T10:56:35;1.90;;;1.80;;
47894;SDS011;33653;52.302;8.134;2023-01-04T10:59:55;1.88;;;1.77;;
47894;SDS011;33653;52.302;8.134;2023-01-04T11:02:45;3.47;;;1.58;;
47894;SDS011;33653;52.302;8.134;2023-01-04T11:05:21;1.65;;;1.55;;
47894;SDS011;33653;52.302;8.134;2023-01-04T11:10:51;2.25;;;2.05;;
47894;SDS011;33653;52.302;8.134;2023-01-04T11:13:24;2.30;;;1.48;;
47894;SDS011;33653;52.302;8.134;2023-01-04T11:15:52;1.88;;;1.67;;
47894;SDS011;33653;52.302;8.134;2023-01-04T11:18:20;3.67;;;1.90;;
47894;SDS011;33653;52.302;8.134;2023-01-04T11:20:48;1.55;;;1.45;;
47894;SDS011;33653;52.302;8.134;2023-01-04T11:23:17;2.17;;;1.88;;
47894;SDS011;33653;52.302;8.134;2023-01-04T11:25:48;2.33;;;2.13;;
47894;SDS011;33653;52.302;8.134;2023-01-04T11:39:16;3.83;;;2.58;;
47894;SDS011;33653;52.302;8.134;2023-01-04T11:42:02;2.38;;;2.17;;
47894;SDS011;33653;52.302;8.134;2023-01-04T11:44:32;2.03;;;1.85;;
47894;SDS011;33653;52.302;8.134;2023-01-04T11:47:15;1.90;;;1.70;;
47894;SDS011;33653;52.302;8.134;2023-01-04T11:49:54;2.13;;;1.88;;
47894;SDS011;33653;52.302;8.134;2023-01-04T11:52:29;2.00;;;1.80;;
47894;SDS011;33653;52.302;8.134;2023-01-04T11:55:15;2.75;;;2.47;;
47894;SDS011;33653;52.302;8.134;2023-01-04T11:58:09;3.97;;;2.08;;
47894;SDS011;33653;52.302;8.134;2023-01-04T12:00:55;1.92;;;1.73;;
47894;SDS011;33653;52.302;8.134;2023-01-04T12:03:25;2.08;;;1.58;;
47894;SDS011;33653;52.302;8.134;2023-01-04T12:06:01;3.28;;;1.80;;
47894;SDS011;33653;52.302;8.134;2023-01-04T12:08:30;1.70;;;1.42;;
47894;SDS011;33653;52.302;8.134;2023-01-04T12:11:01;1.95;;;1.77;;
47894;SDS011;33653;52.302;8.134;2023-01-04T12:13:34;1.95;;;1.75;;
47894;SDS011;33653;52.302;8.134;2023-01-04T12:18:50;1.63;;;1.52;;
47894;SDS011;33653;52.302;8.134;2023-01-04T12:21:22;7.57;;;2.00;;
47894;SDS011;33653;52.302;8.134;2023-01-04T12:23:53;1.05;;;1.02;;
47894;SDS011;33653;52.302;8.134;2023-01-04T12:26:22;2.58;;;1.75;;
47894;SDS011;33653;52.302;8.134;2023-01-04T12:29:40;1.75;;;1.58;;
47894;SDS011;33653;52.302;8.134;2023-01-04T12:31:49;1.98;;;1.80;;
47894;SDS011;33653;52.302;8.134;2023-01-04T12:34:44;1.48;;;1.38;;
47894;SDS011;33653;52.302;8.134;2023-01-04T12:41:02;1.98;;;1.35;;
47894;SDS011;33653;52.302;8.134;2023-01-04T12:46:31;1.20;;;1.10;;
47894;SDS011;33653;52.302;8.134;2023-01-04T12:54:58;1.88;;;1.52;;
47894;SDS011;33653;52.302;8.134;2023-01-04T12:57:30;1.27;;;1.23;;
47894;SDS011;33653;52.302;8.134;2023-01-04T13:00:09;2.33;;;1.50;;
47894;SDS011;33653;52.302;8.134;2023-01-04T13:02:42;2.10;;;1.60;;
47894;SDS011;33653;52.302;8.134;2023-01-04T13:08:29;5.00;;;1.45;;
47894;SDS011;33653;52.302;8.134;2023-01-04T13:10:59;2.90;;;1.50;;
47894;SDS011;33653;52.302;8.134;2023-01-04T13:13:42;2.47;;;0.98;;
47894;SDS011;33653;52.302;8.134;2023-01-04T13:16:31;6.28;;;1.25;;
47894;SDS011;33653;52.302;8.134;2023-01-04T13:19:37;0.80;;;0.80;;
47894;SDS011;33653;52.302;8.134;2023-01-04T13:25:14;3.22;;;1.17;;
47894;SDS011;33653;52.302;8.134;2023-01-04T13:27:56;0.90;;;0.90;;
47894;SDS011;33653;52.302;8.134;2023-01-04T13:30:28;2.03;;;1.02;;
47894;SDS011;33653;52.302;8.134;2023-01-04T13:33:18;1.10;;;1.00;;
47894;SDS011;33653;52.302;8.134;2023-01-04T13:36:12;0.73;;;0.73;;
47894;SDS011;33653;52.302;8.134;2023-01-04T13:38:39;1.65;;;0.80;;
47894;SDS011;33653;52.302;8.134;2023-01-04T13:41:17;0.70;;;0.70;;
47894;SDS011;33653;52.302;8.134;2023-01-04T13:43:52;1.45;;;0.90;;
47894;SDS011;33653;52.302;8.134;2023-01-04T13:46:59;0.70;;;0.63;;
47894;SDS011;33653;52.302;8.134;2023-01-04T13:49:27;0.82;;;0.77;;
47894;SDS011;33653;52.302;8.134;2023-01-04T13:51:55;0.90;;;0.90;;
47894;SDS011;33653;52.302;8.134;2023-01-04T13:55:30;0.93;;;0.90;;
47894;SDS011;33653;52.302;8.134;2023-01-04T14:00:29;1.35;;;0.90;;
47894;SDS011;33653;52.302;8.134;2023-01-04T14:03:36;1.10;;;1.00;;
47894;SDS011;33653;52.302;8.134;2023-01-04T14:08:56;1.05;;;0.82;;
47894;SDS011;33653;52.302;8.134;2023-01-04T14:11:31;2.00;;;1.17;;
47894;SDS011;33653;52.302;8.134;2023-01-04T14:14:49;1.10;;;1.00;;
47894;SDS011;33653;52.302;8.134;2023-01-04T14:17:22;2.40;;;0.85;;
47894;SDS011;33653;52.302;8.134;2023-01-04T14:25:29;2.35;;;1.10;;
47894;SDS011;33653;52.302;8.134;2023-01-04T14:31:10;2.67;;;1.10;;
47894;SDS011;33653;52.302;8.134;2023-01-04T14:33:44;1.88;;;1.20;;
47894;SDS011;33653;52.302;8.134;2023-01-04T14:36:26;3.95;;;1.17;;
47894;SDS011;33653;52.302;8.134;2023-01-04T14:41:41;1.20;;;0.85;;
47894;SDS011;33653;52.302;8.134;2023-01-04T14:44:16;0.95;;;0.88;;
47894;SDS011;33653;52.302;8.134;2023-01-04T14:46:52;1.95;;;0.90;;
47894;SDS011;33653;52.302;8.134;2023-01-04T14:51:56;3.28;;;1.67;;
47894;SDS011;33653;52.302;8.134;2023-01-04T14:54:29;2.60;;;1.13;;
47894;SDS011;33653;52.302;8.134;2023-01-04T14:56:57;1.55;;;1.30;;
47894;SDS011;33653;52.302;8.134;2023-01-04T14:59:25;2.78;;;1.02;;
47894;SDS011;33653;52.302;8.134;2023-01-04T15:01:55;2.78;;;1.35;;
47894;SDS011;33653;52.302;8.134;2023-01-04T15:04:24;5.40;;;1.23;;
47894;SDS011;33653;52.302;8.134;2023-01-04T15:06:54;2.97;;;1.20;;
47894;SDS011;33653;52.302;8.134;2023-01-04T15:09:24;5.07;;;1.88;;
47894;SDS011;33653;52.302;8.134;2023-01-04T15:11:53;1.30;;;1.20;;
47894;SDS011;33653;52.302;8.134;2023-01-04T15:14:22;3.45;;;1.42;;
47894;SDS011;33653;52.302;8.134;2023-01-04T15:16:50;3.88;;;1.63;;
47894;SDS011;33653;52.302;8.134;2023-01-04T15:19:18;1.45;;;1.10;;
47894;SDS011;33653;52.302;8.134;2023-01-04T15:21:46;3.58;;;1.15;;
47894;SDS011;33653;52.302;8.134;2023-01-04T15:24:15;2.95;;;1.15;;
47894;SDS011;33653;52.302;8.134;2023-01-04T15:26:43;1.63;;;1.35;;
47894;SDS011;33653;52.302;8.134;2023-01-04T15:29:11;1.35;;;0.95;;
47894;SDS011;33653;52.302;8.134;2023-01-04T15:31:38;3.22;;;1.58;;
47894;SDS011;33653;52.302;8.134;2023-01-04T15:34:09;6.60;;;1.58;;
47894;SDS011;33653;52.302;8.134;2023-01-04T15:36:37;5.00;;;1.30;;
47894;SDS011;33653;52.302;8.134;2023-01-04T15:39:07;5.05;;;1.58;;
47894;SDS011;33653;52.302;8.134;2023-01-04T15:41:40;1.45;;;1.00;;
47894;SDS011;33653;52.302;8.134;2023-01-04T15:44:26;3.15;;;1.05;;
47894;SDS011;33653;52.302;8.134;2023-01-04T15:46:54;1.58;;;1.30;;
47894;SDS011;33653;52.302;8.134;2023-01-04T15:49:25;2.95;;;1.98;;
47894;SDS011;33653;52.302;8.134;2023-01-04T15:51:56;1.65;;;1.10;;
47894;SDS011;33653;52.302;8.134;2023-01-04T15:54:25;5.47;;;1.33;;
47894;SDS011;33653;52.302;8.134;2023-01-04T15:56:53;2.13;;;1.27;;
47894;SDS011;33653;52.302;8.134;2023-01-04T15:59:21;1.85;;;1.42;;
47894;SDS011;33653;52.302;8.134;2023-01-04T16:01:49;2.03;;;1.35;;
47894;SDS011;33653;52.302;8.134;2023-01-04T16:04:17;5.05;;;1.58;;
47894;SDS011;33653;52.302;8.134;2023-01-04T16:06:45;3.83;;;1.20;;
47894;SDS011;33653;52.302;8.134;2023-01-04T16:09:13;2.55;;;1.23;;
47894;SDS011;33653;52.302;8.134;2023-01-04T16:11:41;2.00;;;1.10;;
47894;SDS011;33653;52.302;8.134;2023-01-04T16:14:27;1.73;;;1.50;;
47894;SDS011;33653;52.302;8.134;2023-01-04T16:16:55;3.65;;;1.60;;
47894;SDS011;33653;52.302;8.134;2023-01-04T16:19:23;5.97;;;1.27;;
47894;SDS011;33653;52.302;8.134;2023-01-04T16:21:51;4.13;;;1.30;;
47894;SDS011;33653;52.302;8.134;2023-01-04T16:24:19;2.20;;;1.30;;
47894;SDS011;33653;52.302;8.134;2023-01-04T16:27:07;3.97;;;1.38;;
47894;SDS011;33653;52.302;8.134;2023-01-04T16:29:35;2.25;;;1.27;;
47894;SDS011;33653;52.302;8.134;2023-01-04T16:32:03;2.60;;;1.42;;
47894;SDS011;33653;52.302;8.134;2023-01-04T16:34:31;3.95;;;1.50;;
47894;SDS011;33653;52.302;8.134;2023-01-04T16:36:59;4.85;;;1.58;;
47894;SDS011;33653;52.302;8.134;2023-01-04T16:39:27;3.67;;;1.83;;
47894;SDS011;33653;52.302;8.134;2023-01-04T16:42:15;4.25;;;1.60;;
47894;SDS011;33653;52.302;8.134;2023-01-04T16:44:43;5.13;;;1.58;;
47894;SDS011;33653;52.302;8.134;2023-01-04T16:47:12;5.95;;;1.75;;
47894;SDS011;33653;52.302;8.134;2023-01-04T16:49:40;3.05;;;1.63;;
47894;SDS011;33653;52.302;8.134;2023-01-04T16:52:08;4.22;;;2.03;;
47894;SDS011;33653;52.302;8.134;2023-01-04T16:54:38;3.55;;;1.45;;
47894;SDS011;33653;52.302;8.134;2023-01-04T16:57:06;3.55;;;1.65;;
47894;SDS011;33653;52.302;8.134;2023-01-04T16:59:34;9.68;;;2.15;;
47894;SDS011;33653;52.302;8.134;2023-01-04T17:02:02;3.53;;;1.42;;
47894;SDS011;33653;52.302;8.134;2023-01-04T17:04:30;6.60;;;1.33;;
47894;SDS011;33653;52.302;8.134;2023-01-04T17:06:57;4.70;;;2.08;;
47894;SDS011;33653;52.302;8.134;2023-01-04T17:09:25;2.38;;;1.70;;
47894;SDS011;33653;52.302;8.134;2023-01-04T17:11:53;5.75;;;1.92;;
47894;SDS011;33653;52.302;8.134;2023-01-04T17:14:45;2.40;;;1.58;;
47894;SDS011;33653;52.302;8.134;2023-01-04T17:17:33;2.40;;;1.67;;
47894;SDS011;33653;52.302;8.134;2023-01-04T17:20:01;4.38;;;2.22;;
47894;SDS011;33653;52.302;8.134;2023-01-04T17:22:30;6.18;;;2.30;;
47894;SDS011;33653;52.302;8.134;2023-01-04T17:25:01;3.80;;;1.50;;